Apple Creek, Ohio
Current Conditions -  °F | °C
As of 12:56 AM on Thursday 23 Oct 2014 (Local Time) from KBJJ Reporting Station
Overcast Overcast  
Wind Chill: 46°   Ceiling: 3600
Heat Index: 49°   Visibility: 10mi
Dew Point: 44°   Wind: 7mph
Humidity: 83%   Direction: 360°N
Pressure: 30.21"   Gusts: NA
Location:  40.75°N, 81.84°W
Report Text: KBJJ 230456Z AUTO 36006KT 10SM OVC036 09/07 A3021 RMK AO2 SLP234 T00940067 401000083 TSNO
Loading
Personal Weather Stations






























Interactive Weather Map New forecast layout! Learn more

10-Day Weather Forecast

Advertisements
Track Severe Weather on mobile